Terminal Aerodrome Forecast
Issued by NWS

Home | Current Version | Previous Version | Text Only | Print | Product List | Glossary On
Versions: 1 2 3 4 5 6 7 8 9 10 11 12 13 14 15 16 17
000
FTUS45 KRIW 272330
TAFJAC
TAF
KJAC 272330Z 2800/2824 26007KT P6SM VCSH SCT040 BKN060
      TEMPO 2801/2803 5SM -RASN SCT020 BKN030
     FM280300 35007KT P6SM VCSH SCT025 BKN040
     FM281800 35012G20KT P6SM BKN040
      AMD LTD TO CLD VIS AND WIND=

USA.gov is the U.S. government's official web portal to all federal, state and local government web resources and services.